createdAt,value
2019-03-25T00:01:33.767Z,35.00
2019-03-25T00:06:33.757Z,31.90
2019-03-25T00:11:33.748Z,28.30
2019-03-25T00:16:33.743Z,28.90
2019-03-25T00:21:33.755Z,32.20
2019-03-25T00:26:33.760Z,25.80
2019-03-25T00:31:33.748Z,32.10
2019-03-25T00:36:33.777Z,31.30
2019-03-25T00:41:33.744Z,26.30
2019-03-25T00:46:33.761Z,30.00
2019-03-25T00:51:33.746Z,35.60
2019-03-25T00:56:33.754Z,33.50
2019-03-25T01:01:33.754Z,31.70
2019-03-25T01:06:33.764Z,32.80
2019-03-25T01:11:33.745Z,32.70
2019-03-25T01:16:33.769Z,31.10
2019-03-25T01:21:33.742Z,33.30
2019-03-25T01:26:33.748Z,41.00
2019-03-25T01:31:33.725Z,33.90
2019-03-25T01:36:33.772Z,37.80
2019-03-25T01:41:33.740Z,35.00
2019-03-25T01:46:33.774Z,33.80
2019-03-25T01:51:33.737Z,33.20
2019-03-25T01:56:33.784Z,32.10
2019-03-25T02:01:33.729Z,31.90
2019-03-25T02:06:33.760Z,37.40
2019-03-25T02:11:33.727Z,33.70
2019-03-25T02:16:35.707Z,36.70
2019-03-25T02:21:33.748Z,37.80
2019-03-25T02:26:33.749Z,35.40
2019-03-25T02:31:33.725Z,35.20
2019-03-25T02:36:33.719Z,37.90
2019-03-25T02:41:33.745Z,37.00
2019-03-25T02:46:33.774Z,31.70
2019-03-25T02:51:33.723Z,33.40
2019-03-25T02:56:33.753Z,37.80
2019-03-25T03:01:33.759Z,32.70
2019-03-25T03:06:33.746Z,33.50
2019-03-25T03:11:33.771Z,36.10
2019-03-25T03:16:33.702Z,44.80
2019-03-25T03:21:33.746Z,39.40
2019-03-25T03:26:33.717Z,33.10
2019-03-25T03:31:33.775Z,33.70
2019-03-25T03:36:33.711Z,30.20
2019-03-25T03:41:33.760Z,31.40
2019-03-25T03:46:33.722Z,38.30
2019-03-25T03:51:33.708Z,36.30
2019-03-25T03:56:33.729Z,45.70
2019-03-25T04:01:33.713Z,41.20
2019-03-25T04:06:33.751Z,46.40
2019-03-25T04:11:33.721Z,40.10
2019-03-25T04:16:33.736Z,40.60
2019-03-25T04:21:33.720Z,42.60
2019-03-25T04:26:33.717Z,38.40
2019-03-25T04:31:33.739Z,37.30
2019-03-25T04:36:33.737Z,40.20
2019-03-25T04:41:33.727Z,36.40
2019-03-25T04:46:33.704Z,36.00
2019-03-25T04:51:33.723Z,36.80
2019-03-25T04:56:39.582Z,45.00
2019-03-25T05:01:33.741Z,38.70
2019-03-25T05:06:33.686Z,41.40
2019-03-25T05:11:33.743Z,39.10
2019-03-25T05:16:33.715Z,45.80
2019-03-25T05:21:33.709Z,45.70
2019-03-25T05:26:33.761Z,43.10
2019-03-25T05:31:33.699Z,54.90
2019-03-25T05:36:33.709Z,53.80
2019-03-25T05:41:33.707Z,44.40
2019-03-25T05:46:33.741Z,41.90
2019-03-25T05:51:33.704Z,47.10
2019-03-25T05:56:33.729Z,50.50
2019-03-25T06:01:33.696Z,40.00
2019-03-25T06:06:33.712Z,44.90
2019-03-25T06:11:33.739Z,50.60
2019-03-25T06:16:33.706Z,48.10
2019-03-25T06:21:33.700Z,50.00
2019-03-25T06:26:33.714Z,61.30
2019-03-25T06:31:33.690Z,62.10
2019-03-25T06:36:33.684Z,61.10
2019-03-25T06:41:33.693Z,61.60
2019-03-25T06:46:33.706Z,62.20
2019-03-25T06:51:33.731Z,56.00
2019-03-25T06:56:33.702Z,56.90
2019-03-25T07:01:33.738Z,56.90
2019-03-25T07:06:33.682Z,56.50
2019-03-25T07:11:33.706Z,56.00
2019-03-25T07:16:33.696Z,56.10
2019-03-25T07:21:33.705Z,50.40
2019-03-25T07:26:33.699Z,46.20
2019-03-25T07:31:33.690Z,46.90
2019-03-25T07:36:33.700Z,48.20
2019-03-25T07:41:33.727Z,49.40
2019-03-25T07:46:33.680Z,50.50
2019-03-25T07:51:33.678Z,53.30
2019-03-25T07:56:33.733Z,51.70
2019-03-25T08:01:33.711Z,52.00
2019-03-25T08:06:33.704Z,51.00
2019-03-25T08:11:33.720Z,48.70
2019-03-25T08:16:33.728Z,44.70
2019-03-25T08:21:33.701Z,50.20
2019-03-25T08:26:33.675Z,48.60
2019-03-25T08:31:33.709Z,47.80
2019-03-25T08:36:33.689Z,47.00
2019-03-25T08:41:33.687Z,48.20
2019-03-25T08:46:33.708Z,48.50
2019-03-25T08:51:33.691Z,48.80
2019-03-25T08:56:33.720Z,44.60
2019-03-25T09:01:33.706Z,44.40
2019-03-25T09:06:33.699Z,48.60
2019-03-25T09:11:33.686Z,45.30
2019-03-25T09:16:33.794Z,48.20
2019-03-25T09:21:33.827Z,44.80
2019-03-25T09:26:33.694Z,42.80
2019-03-25T09:31:37.029Z,37.40
2019-03-25T09:36:33.821Z,37.30
2019-03-25T09:41:33.709Z,34.60
2019-03-25T09:46:33.693Z,34.80
2019-03-25T09:51:33.722Z,34.40
2019-03-25T09:56:33.705Z,32.70
2019-03-25T10:01:33.731Z,30.70
2019-03-25T10:06:33.717Z,28.30
2019-03-25T10:11:33.712Z,26.40
2019-03-25T10:16:33.706Z,26.10
2019-03-25T10:21:33.686Z,24.00
2019-03-25T10:26:33.682Z,23.70
2019-03-25T10:31:33.710Z,25.90
2019-03-25T10:36:33.690Z,22.70
2019-03-25T10:41:33.698Z,20.60
2019-03-25T10:46:33.702Z,21.20
2019-03-25T10:51:33.705Z,22.10
2019-03-25T10:56:33.675Z,22.90
2019-03-25T11:01:33.708Z,24.20
2019-03-25T11:06:33.677Z,23.80
2019-03-25T11:11:33.730Z,25.00
2019-03-25T11:16:33.722Z,23.00
